Terminal Aerodrome Forecast
Issued by NWS

Current Version | Previous Version | Graphics & Text | Print | Product List | Glossary On
Versions: 1 2 3 4 5 6 7 8 9 10 11 12 13 14 15 16 17 18 19 20 21
000
FTUS41 KRLX 201145
TAFCKB
TAF
KCKB 201145Z 2012/2112 00000KT 4SM BR SCT001
     FM201230 00000KT P6SM SKC
     FM201600 VRB03KT P6SM FEW045
     FM202300 00000KT P6SM SCT250
     FM211000 00000KT 5SM BR SCT250=

USA.gov is the U.S. government's official web portal to all federal, state and local government web resources and services.